sensor_id;sensor_type;location;lat;lon;timestamp;temperature;humidity
48264;DHT22;34086;51.076;13.722;2023-04-16T00:00:26;7.90;99.90
48264;DHT22;34086;51.076;13.722;2023-04-16T00:01:27;7.90;99.90
48264;DHT22;34086;51.076;13.722;2023-04-16T00:02:28;7.80;99.90
48264;DHT22;34086;51.076;13.722;2023-04-16T00:03:29;7.80;99.90
48264;DHT22;34086;51.076;13.722;2023-04-16T00:04:29;7.80;99.90
48264;DHT22;34086;51.076;13.722;2023-04-16T00:05:30;7.80;99.90
48264;DHT22;34086;51.076;13.722;2023-04-16T00:06:31;7.80;99.90
48264;DHT22;34086;51.076;13.722;2023-04-16T00:07:31;7.80;99.90
48264;DHT22;34086;51.076;13.722;2023-04-16T00:08:32;7.80;99.90
48264;DHT22;34086;51.076;13.722;2023-04-16T00:09:35;7.70;99.90
48264;DHT22;34086;51.076;13.722;2023-04-16T00:10:35;7.70;99.90
48264;DHT22;34086;51.076;13.722;2023-04-16T00:11:36;7.80;99.90
48264;DHT22;34086;51.076;13.722;2023-04-16T00:12:36;7.70;99.90
48264;DHT22;34086;51.076;13.722;2023-04-16T00:13:37;7.80;99.90
48264;DHT22;34086;51.076;13.722;2023-04-16T00:14:37;7.70;99.90
48264;DHT22;34086;51.076;13.722;2023-04-16T00:15:38;7.80;99.90
48264;DHT22;34086;51.076;13.722;2023-04-16T00:16:39;7.70;99.90
48264;DHT22;34086;51.076;13.722;2023-04-16T00:17:39;7.80;99.90
48264;DHT22;34086;51.076;13.722;2023-04-16T00:18:40;7.80;99.90
48264;DHT22;34086;51.076;13.722;2023-04-16T00:19:40;7.70;99.90
48264;DHT22;34086;51.076;13.722;2023-04-16T00:20:41;7.80;99.90
48264;DHT22;34086;51.076;13.722;2023-04-16T00:21:42;7.70;99.90
48264;DHT22;34086;51.076;13.722;2023-04-16T00:22:42;7.80;99.90
48264;DHT22;34086;51.076;13.722;2023-04-16T00:23:43;7.70;99.90
48264;DHT22;34086;51.076;13.722;2023-04-16T00:24:43;7.80;99.90
48264;DHT22;34086;51.076;13.722;2023-04-16T00:25:44;7.80;99.90
48264;DHT22;34086;51.076;13.722;2023-04-16T00:26:45;7.80;99.90
48264;DHT22;34086;51.076;13.722;2023-04-16T00:27:45;7.80;99.90
48264;DHT22;34086;51.076;13.722;2023-04-16T00:28:46;7.80;99.90
48264;DHT22;34086;51.076;13.722;2023-04-16T00:29:46;7.80;99.90
48264;DHT22;34086;51.076;13.722;2023-04-16T00:30:47;7.80;99.90
48264;DHT22;34086;51.076;13.722;2023-04-16T00:31:48;7.80;99.90
48264;DHT22;34086;51.076;13.722;2023-04-16T00:32:48;7.80;99.90
48264;DHT22;34086;51.076;13.722;2023-04-16T00:33:49;7.80;99.90
48264;DHT22;34086;51.076;13.722;2023-04-16T00:34:49;7.80;99.90
48264;DHT22;34086;51.076;13.722;2023-04-16T00:35:50;7.70;99.90
48264;DHT22;34086;51.076;13.722;2023-04-16T00:36:51;7.80;99.90
48264;DHT22;34086;51.076;13.722;2023-04-16T00:37:51;7.70;99.90
48264;DHT22;34086;51.076;13.722;2023-04-16T00:38:53;7.70;99.90
48264;DHT22;34086;51.076;13.722;2023-04-16T00:39:54;7.80;99.90
48264;DHT22;34086;51.076;13.722;2023-04-16T00:40:55;7.70;99.90
48264;DHT22;34086;51.076;13.722;2023-04-16T00:41:58;7.70;99.90
48264;DHT22;34086;51.076;13.722;2023-04-16T00:42:58;7.70;99.90
48264;DHT22;34086;51.076;13.722;2023-04-16T00:43:59;7.80;99.90
48264;DHT22;34086;51.076;13.722;2023-04-16T00:44:59;7.70;99.90
48264;DHT22;34086;51.076;13.722;2023-04-16T00:46:04;7.80;99.90
48264;DHT22;34086;51.076;13.722;2023-04-16T00:47:05;7.80;99.90
48264;DHT22;34086;51.076;13.722;2023-04-16T00:48:06;7.70;99.90
48264;DHT22;34086;51.076;13.722;2023-04-16T00:49:07;7.80;99.90
48264;DHT22;34086;51.076;13.722;2023-04-16T00:50:10;7.80;99.90
48264;DHT22;34086;51.076;13.722;2023-04-16T00:51:10;7.80;99.90
48264;DHT22;34086;51.076;13.722;2023-04-16T00:52:11;7.80;99.90
48264;DHT22;34086;51.076;13.722;2023-04-16T00:53:13;7.80;99.90
48264;DHT22;34086;51.076;13.722;2023-04-16T00:54:14;7.80;99.90
48264;DHT22;34086;51.076;13.722;2023-04-16T00:55:15;7.80;99.90
48264;DHT22;34086;51.076;13.722;2023-04-16T00:56:18;7.80;99.90
48264;DHT22;34086;51.076;13.722;2023-04-16T00:57:19;7.80;99.90
48264;DHT22;34086;51.076;13.722;2023-04-16T00:58:23;7.80;99.90
48264;DHT22;34086;51.076;13.722;2023-04-16T00:59:25;7.80;99.90
48264;DHT22;34086;51.076;13.722;2023-04-16T01:00:26;7.70;99.90
48264;DHT22;34086;51.076;13.722;2023-04-16T01:01:27;7.80;99.90
48264;DHT22;34086;51.076;13.722;2023-04-16T01:02:27;7.70;99.90
48264;DHT22;34086;51.076;13.722;2023-04-16T01:03:47;7.70;99.90
48264;DHT22;34086;51.076;13.722;2023-04-16T01:04:48;7.70;99.90
48264;DHT22;34086;51.076;13.722;2023-04-16T01:05:50;7.70;99.90
48264;DHT22;34086;51.076;13.722;2023-04-16T01:06:50;7.70;99.90
48264;DHT22;34086;51.076;13.722;2023-04-16T01:07:51;7.70;99.90
48264;DHT22;34086;51.076;13.722;2023-04-16T01:08:52;7.70;99.90
48264;DHT22;34086;51.076;13.722;2023-04-16T01:09:52;7.70;99.90
48264;DHT22;34086;51.076;13.722;2023-04-16T01:10:53;7.70;99.90
48264;DHT22;34086;51.076;13.722;2023-04-16T01:11:53;7.70;99.90
48264;DHT22;34086;51.076;13.722;2023-04-16T01:12:54;7.70;99.90
48264;DHT22;34086;51.076;13.722;2023-04-16T01:13:55;7.70;99.90
48264;DHT22;34086;51.076;13.722;2023-04-16T01:14:55;7.70;99.90
48264;DHT22;34086;51.076;13.722;2023-04-16T01:15:56;7.70;99.90
48264;DHT22;34086;51.076;13.722;2023-04-16T01:16:57;7.70;99.90
48264;DHT22;34086;51.076;13.722;2023-04-16T01:17:57;7.70;99.90
48264;DHT22;34086;51.076;13.722;2023-04-16T01:18:58;7.70;99.90
48264;DHT22;34086;51.076;13.722;2023-04-16T01:19:59;7.70;99.90
48264;DHT22;34086;51.076;13.722;2023-04-16T01:21:00;7.70;99.90
48264;DHT22;34086;51.076;13.722;2023-04-16T01:22:01;7.70;99.90
48264;DHT22;34086;51.076;13.722;2023-04-16T01:23:02;7.70;99.90
48264;DHT22;34086;51.076;13.722;2023-04-16T01:24:03;7.70;99.90
48264;DHT22;34086;51.076;13.722;2023-04-16T01:25:04;7.70;99.90
48264;DHT22;34086;51.076;13.722;2023-04-16T01:26:04;7.70;99.90
48264;DHT22;34086;51.076;13.722;2023-04-16T01:27:05;7.70;99.90
48264;DHT22;34086;51.076;13.722;2023-04-16T01:28:06;7.70;99.90
48264;DHT22;34086;51.076;13.722;2023-04-16T01:29:07;7.70;99.90
48264;DHT22;34086;51.076;13.722;2023-04-16T01:30:08;7.70;99.90
48264;DHT22;34086;51.076;13.722;2023-04-16T01:31:20;7.70;99.90
48264;DHT22;34086;51.076;13.722;2023-04-16T01:32:37;7.70;99.90
48264;DHT22;34086;51.076;13.722;2023-04-16T01:33:38;7.60;99.90
48264;DHT22;34086;51.076;13.722;2023-04-16T01:34:40;7.60;99.90
48264;DHT22;34086;51.076;13.722;2023-04-16T01:35:43;7.70;99.90
48264;DHT22;34086;51.076;13.722;2023-04-16T01:36:44;7.60;99.90
48264;DHT22;34086;51.076;13.722;2023-04-16T01:37:45;7.60;99.90
48264;DHT22;34086;51.076;13.722;2023-04-16T01:38:46;7.60;99.90
48264;DHT22;34086;51.076;13.722;2023-04-16T01:39:46;7.60;99.90
48264;DHT22;34086;51.076;13.722;2023-04-16T01:40:47;7.60;99.90
48264;DHT22;34086;51.076;13.722;2023-04-16T01:41:47;7.60;99.90
48264;DHT22;34086;51.076;13.722;2023-04-16T01:42:48;7.60;99.90
48264;DHT22;34086;51.076;13.722;2023-04-16T01:43:48;7.60;99.90
48264;DHT22;34086;51.076;13.722;2023-04-16T01:44:49;7.60;99.90
48264;DHT22;34086;51.076;13.722;2023-04-16T01:45:51;7.60;99.90
48264;DHT22;34086;51.076;13.722;2023-04-16T01:46:51;7.60;99.90
48264;DHT22;34086;51.076;13.722;2023-04-16T01:47:52;7.50;99.90
48264;DHT22;34086;51.076;13.722;2023-04-16T01:48:53;7.50;99.90
48264;DHT22;34086;51.076;13.722;2023-04-16T01:49:54;7.50;99.90
48264;DHT22;34086;51.076;13.722;2023-04-16T01:50:55;7.50;99.90
48264;DHT22;34086;51.076;13.722;2023-04-16T01:51:55;7.50;99.90
48264;DHT22;34086;51.076;13.722;2023-04-16T01:52:56;7.50;99.90
48264;DHT22;34086;51.076;13.722;2023-04-16T01:53:56;7.50;99.90
48264;DHT22;34086;51.076;13.722;2023-04-16T01:54:58;7.40;99.90
48264;DHT22;34086;51.076;13.722;2023-04-16T01:55:58;7.40;99.90
48264;DHT22;34086;51.076;13.722;2023-04-16T01:56:59;7.40;99.90
48264;DHT22;34086;51.076;13.722;2023-04-16T01:58:01;7.40;99.90
48264;DHT22;34086;51.076;13.722;2023-04-16T01:59:05;7.40;99.90
48264;DHT22;34086;51.076;13.722;2023-04-16T02:00:11;7.30;99.90
48264;DHT22;34086;51.076;13.722;2023-04-16T02:01:21;7.30;99.90
48264;DHT22;34086;51.076;13.722;2023-04-16T02:02:22;7.30;99.90
48264;DHT22;34086;51.076;13.722;2023-04-16T02:03:29;7.30;99.90
48264;DHT22;34086;51.076;13.722;2023-04-16T02:04:31;7.20;99.90
48264;DHT22;34086;51.076;13.722;2023-04-16T02:05:31;7.20;99.90
48264;DHT22;34086;51.076;13.722;2023-04-16T02:06:32;7.20;99.90
48264;DHT22;34086;51.076;13.722;2023-04-16T02:07:32;7.10;99.90
48264;DHT22;34086;51.076;13.722;2023-04-16T02:08:33;7.10;99.90
48264;DHT22;34086;51.076;13.722;2023-04-16T02:09:35;7.10;99.90
48264;DHT22;34086;51.076;13.722;2023-04-16T02:10:39;7.10;99.90
48264;DHT22;34086;51.076;13.722;2023-04-16T02:11:42;7.00;99.90
48264;DHT22;34086;51.076;13.722;2023-04-16T02:12:42;7.00;99.90
48264;DHT22;34086;51.076;13.722;2023-04-16T02:13:43;7.00;99.90
48264;DHT22;34086;51.076;13.722;2023-04-16T02:14:43;7.00;99.90
48264;DHT22;34086;51.076;13.722;2023-04-16T02:15:47;6.90;99.90
48264;DHT22;34086;51.076;13.722;2023-04-16T02:16:49;6.90;99.90
48264;DHT22;34086;51.076;13.722;2023-04-16T02:18:09;6.90;99.90
48264;DHT22;34086;51.076;13.722;2023-04-16T02:19:11;6.90;99.90
48264;DHT22;34086;51.076;13.722;2023-04-16T02:20:15;6.90;99.90
48264;DHT22;34086;51.076;13.722;2023-04-16T02:21:25;6.90;99.90
48264;DHT22;34086;51.076;13.722;2023-04-16T02:22:27;6.80;99.90
48264;DHT22;34086;51.076;13.722;2023-04-16T02:23:28;6.80;99.90
48264;DHT22;34086;51.076;13.722;2023-04-16T02:24:34;6.80;99.90
48264;DHT22;34086;51.076;13.722;2023-04-16T02:25:39;6.70;99.90
48264;DHT22;34086;51.076;13.722;2023-04-16T02:26:42;6.70;99.90
48264;DHT22;34086;51.076;13.722;2023-04-16T02:27:48;6.70;99.90
48264;DHT22;34086;51.076;13.722;2023-04-16T02:28:58;6.70;99.90
48264;DHT22;34086;51.076;13.722;2023-04-16T02:30:06;6.70;99.90
48264;DHT22;34086;51.076;13.722;2023-04-16T02:31:08;6.70;99.90
48264;DHT22;34086;51.076;13.722;2023-04-16T02:32:14;6.60;99.90
48264;DHT22;34086;51.076;13.722;2023-04-16T02:33:18;6.70;99.90
48264;DHT22;34086;51.076;13.722;2023-04-16T02:34:28;6.70;99.90
48264;DHT22;34086;51.076;13.722;2023-04-16T02:35:29;6.60;99.90
48264;DHT22;34086;51.076;13.722;2023-04-16T02:36:30;6.60;99.90
48264;DHT22;34086;51.076;13.722;2023-04-16T02:37:31;6.60;99.90
48264;DHT22;34086;51.076;13.722;2023-04-16T02:38:32;6.60;99.90
48264;DHT22;34086;51.076;13.722;2023-04-16T02:39:33;6.60;99.90
48264;DHT22;34086;51.076;13.722;2023-04-16T02:40:33;6.60;99.90
48264;DHT22;34086;51.076;13.722;2023-04-16T02:41:34;6.60;99.90
48264;DHT22;34086;51.076;13.722;2023-04-16T02:42:35;6.60;99.90
48264;DHT22;34086;51.076;13.722;2023-04-16T02:43:36;6.60;99.90
48264;DHT22;34086;51.076;13.722;2023-04-16T02:44:37;6.60;99.90
48264;DHT22;34086;51.076;13.722;2023-04-16T02:45:38;6.50;99.90
48264;DHT22;34086;51.076;13.722;2023-04-16T02:46:39;6.50;99.90
48264;DHT22;34086;51.076;13.722;2023-04-16T02:47:39;6.50;99.90
48264;DHT22;34086;51.076;13.722;2023-04-16T02:48:40;6.50;99.90
48264;DHT22;34086;51.076;13.722;2023-04-16T02:49:41;6.50;99.90
48264;DHT22;34086;51.076;13.722;2023-04-16T02:50:42;6.50;99.90
48264;DHT22;34086;51.076;13.722;2023-04-16T02:51:42;6.50;99.90
48264;DHT22;34086;51.076;13.722;2023-04-16T02:52:43;6.50;99.90
48264;DHT22;34086;51.076;13.722;2023-04-16T02:53:43;6.50;99.90
48264;DHT22;34086;51.076;13.722;2023-04-16T02:54:45;6.50;99.90
48264;DHT22;34086;51.076;13.722;2023-04-16T02:55:53;6.50;99.90
48264;DHT22;34086;51.076;13.722;2023-04-16T02:56:54;6.50;99.90
48264;DHT22;34086;51.076;13.722;2023-04-16T02:57:55;6.50;99.90
48264;DHT22;34086;51.076;13.722;2023-04-16T02:58:55;6.50;99.90
48264;DHT22;34086;51.076;13.722;2023-04-16T02:59:56;6.50;99.90
48264;DHT22;34086;51.076;13.722;2023-04-16T03:00:57;6.50;99.90
48264;DHT22;34086;51.076;13.722;2023-04-16T03:01:57;6.50;99.90
48264;DHT22;34086;51.076;13.722;2023-04-16T03:02:58;6.50;99.90
48264;DHT22;34086;51.076;13.722;2023-04-16T03:03:59;6.40;99.90
48264;DHT22;34086;51.076;13.722;2023-04-16T03:04:59;6.40;99.90
48264;DHT22;34086;51.076;13.722;2023-04-16T03:06:00;6.40;99.90
48264;DHT22;34086;51.076;13.722;2023-04-16T03:07:00;6.40;99.90
48264;DHT22;34086;51.076;13.722;2023-04-16T03:08:03;6.40;99.90
48264;DHT22;34086;51.076;13.722;2023-04-16T03:09:03;6.40;99.90
48264;DHT22;34086;51.076;13.722;2023-04-16T03:10:05;6.40;99.90
48264;DHT22;34086;51.076;13.722;2023-04-16T03:11:06;6.40;99.90
48264;DHT22;34086;51.076;13.722;2023-04-16T03:12:07;6.30;99.90
48264;DHT22;34086;51.076;13.722;2023-04-16T03:13:07;6.30;99.90
48264;DHT22;34086;51.076;13.722;2023-04-16T03:14:08;6.30;99.90
48264;DHT22;34086;51.076;13.722;2023-04-16T03:15:09;6.30;99.90
48264;DHT22;34086;51.076;13.722;2023-04-16T03:16:10;6.30;99.90
48264;DHT22;34086;51.076;13.722;2023-04-16T03:17:10;6.30;99.90
48264;DHT22;34086;51.076;13.722;2023-04-16T03:18:11;6.20;99.90
48264;DHT22;34086;51.076;13.722;2023-04-16T03:19:11;6.20;99.90
48264;DHT22;34086;51.076;13.722;2023-04-16T03:20:12;6.20;99.90
48264;DHT22;34086;51.076;13.722;2023-04-16T03:21:13;6.20;99.90
48264;DHT22;34086;51.076;13.722;2023-04-16T03:22:14;6.20;99.90
48264;DHT22;34086;51.076;13.722;2023-04-16T03:23:14;6.20;99.90
48264;DHT22;34086;51.076;13.722;2023-04-16T03:24:15;6.20;99.90
48264;DHT22;34086;51.076;13.722;2023-04-16T03:25:16;6.20;99.90
48264;DHT22;34086;51.076;13.722;2023-04-16T03:26:16;6.10;99.90
48264;DHT22;34086;51.076;13.722;2023-04-16T03:27:17;6.10;99.90
48264;DHT22;34086;51.076;13.722;2023-04-16T03:28:18;6.10;99.90
48264;DHT22;34086;51.076;13.722;2023-04-16T03:29:19;6.10;99.90
48264;DHT22;34086;51.076;13.722;2023-04-16T03:30:21;6.10;99.90
48264;DHT22;34086;51.076;13.722;2023-04-16T03:31:23;6.10;99.90
48264;DHT22;34086;51.076;13.722;2023-04-16T03:32:24;6.10;99.90
48264;DHT22;34086;51.076;13.722;2023-04-16T03:33:25;6.10;99.90
48264;DHT22;34086;51.076;13.722;2023-04-16T03:34:26;6.10;99.90
48264;DHT22;34086;51.076;13.722;2023-04-16T03:35:27;6.00;99.90
48264;DHT22;34086;51.076;13.722;2023-04-16T03:36:28;6.00;99.90
48264;DHT22;34086;51.076;13.722;2023-04-16T03:37:29;6.00;99.90
48264;DHT22;34086;51.076;13.722;2023-04-16T03:38:30;6.00;99.90
48264;DHT22;34086;51.076;13.722;2023-04-16T03:39:32;6.10;99.90
48264;DHT22;34086;51.076;13.722;2023-04-16T03:40:33;6.10;99.90
48264;DHT22;34086;51.076;13.722;2023-04-16T03:41:35;6.10;99.90
48264;DHT22;34086;51.076;13.722;2023-04-16T03:42:36;6.10;99.90
48264;DHT22;34086;51.076;13.722;2023-04-16T03:43:38;6.10;99.90
48264;DHT22;34086;51.076;13.722;2023-04-16T03:44:39;6.10;99.90
48264;DHT22;34086;51.076;13.722;2023-04-16T03:45:46;6.10;99.90
48264;DHT22;34086;51.076;13.722;2023-04-16T03:46:47;6.00;99.90
48264;DHT22;34086;51.076;13.722;2023-04-16T03:47:47;6.00;99.90
48264;DHT22;34086;51.076;13.722;2023-04-16T03:48:53;6.00;99.90
48264;DHT22;34086;51.076;13.722;2023-04-16T03:49:54;6.00;99.90
48264;DHT22;34086;51.076;13.722;2023-04-16T03:50:54;6.00;99.90
48264;DHT22;34086;51.076;13.722;2023-04-16T03:51:55;5.90;99.90
48264;DHT22;34086;51.076;13.722;2023-04-16T03:52:56;6.00;99.90
48264;DHT22;34086;51.076;13.722;2023-04-16T03:53:56;5.90;99.90
48264;DHT22;34086;51.076;13.722;2023-04-16T03:54:58;5.90;99.90
48264;DHT22;34086;51.076;13.722;2023-04-16T03:56:01;5.90;99.90
48264;DHT22;34086;51.076;13.722;2023-04-16T03:57:02;5.90;99.90
48264;DHT22;34086;51.076;13.722;2023-04-16T03:58:02;5.90;99.90
48264;DHT22;34086;51.076;13.722;2023-04-16T03:59:05;5.90;99.90
48264;DHT22;34086;51.076;13.722;2023-04-16T04:00:07;5.80;99.90
48264;DHT22;34086;51.076;13.722;2023-04-16T04:01:34;5.90;99.90
48264;DHT22;34086;51.076;13.722;2023-04-16T04:02:36;5.80;99.90
48264;DHT22;34086;51.076;13.722;2023-04-16T04:03:36;5.80;99.90
48264;DHT22;34086;51.076;13.722;2023-04-16T04:04:37;5.80;99.90
48264;DHT22;34086;51.076;13.722;2023-04-16T04:05:41;5.80;99.90
48264;DHT22;34086;51.076;13.722;2023-04-16T04:06:44;5.80;99.90
48264;DHT22;34086;51.076;13.722;2023-04-16T04:07:46;5.80;99.90
48264;DHT22;34086;51.076;13.722;2023-04-16T04:08:48;5.80;99.90
48264;DHT22;34086;51.076;13.722;2023-04-16T04:09:48;5.70;99.90
48264;DHT22;34086;51.076;13.722;2023-04-16T04:10:49;5.80;99.90
48264;DHT22;34086;51.076;13.722;2023-04-16T04:11:50;5.70;99.90
48264;DHT22;34086;51.076;13.722;2023-04-16T04:12:51;5.70;99.90
48264;DHT22;34086;51.076;13.722;2023-04-16T04:13:52;5.70;99.90
48264;DHT22;34086;51.076;13.722;2023-04-16T04:14:52;5.70;99.90
48264;DHT22;34086;51.076;13.722;2023-04-16T04:15:54;5.70;99.90
48264;DHT22;34086;51.076;13.722;2023-04-16T04:16:56;5.70;99.90
48264;DHT22;34086;51.076;13.722;2023-04-16T04:17:56;5.70;99.90
48264;DHT22;34086;51.076;13.722;2023-04-16T04:18:57;5.70;99.90
48264;DHT22;34086;51.076;13.722;2023-04-16T04:19:59;5.70;99.90
48264;DHT22;34086;51.076;13.722;2023-04-16T04:21:04;5.70;99.90
48264;DHT22;34086;51.076;13.722;2023-04-16T04:22:06;5.70;99.90
48264;DHT22;34086;51.076;13.722;2023-04-16T04:23:07;5.70;99.90
48264;DHT22;34086;51.076;13.722;2023-04-16T04:24:07;5.80;99.90
48264;DHT22;34086;51.076;13.722;2023-04-16T04:25:11;5.80;99.90
48264;DHT22;34086;51.076;13.722;2023-04-16T04:26:12;5.80;99.90
48264;DHT22;34086;51.076;13.722;2023-04-16T04:27:14;5.80;99.90
48264;DHT22;34086;51.076;13.722;2023-04-16T04:28:16;5.80;99.90
48264;DHT22;34086;51.076;13.722;2023-04-16T04:29:17;5.80;99.90
48264;DHT22;34086;51.076;13.722;2023-04-16T04:30:18;5.90;99.90
48264;DHT22;34086;51.076;13.722;2023-04-16T04:31:18;5.90;99.90
48264;DHT22;34086;51.076;13.722;2023-04-16T04:32:19;5.90;99.90
48264;DHT22;34086;51.076;13.722;2023-04-16T04:33:22;5.90;99.90
48264;DHT22;34086;51.076;13.722;2023-04-16T04:34:25;5.90;99.90
48264;DHT22;34086;51.076;13.722;2023-04-16T04:35:25;6.00;99.90
48264;DHT22;34086;51.076;13.722;2023-04-16T04:36:26;6.00;99.90
48264;DHT22;34086;51.076;13.722;2023-04-16T04:37:28;6.00;99.90
48264;DHT22;34086;51.076;13.722;2023-04-16T04:38:29;6.00;99.90
48264;DHT22;34086;51.076;13.722;2023-04-16T04:39:31;6.00;99.90
48264;DHT22;34086;51.076;13.722;2023-04-16T04:40:33;6.10;99.90
48264;DHT22;34086;51.076;13.722;2023-04-16T04:41:35;6.00;99.90
48264;DHT22;34086;51.076;13.722;2023-04-16T04:42:36;6.10;99.90
48264;DHT22;34086;51.076;13.722;2023-04-16T04:43:37;6.10;99.90
48264;DHT22;34086;51.076;13.722;2023-04-16T04:44:38;6.20;99.90
48264;DHT22;34086;51.076;13.722;2023-04-16T04:45:39;6.20;99.90
48264;DHT22;34086;51.076;13.722;2023-04-16T04:46:40;6.20;99.90
48264;DHT22;34086;51.076;13.722;2023-04-16T04:47:40;6.30;99.90
48264;DHT22;34086;51.076;13.722;2023-04-16T04:48:41;6.30;99.90
48264;DHT22;34086;51.076;13.722;2023-04-16T04:49:42;6.40;99.90
48264;DHT22;34086;51.076;13.722;2023-04-16T04:50:43;6.40;99.90
48264;DHT22;34086;51.076;13.722;2023-04-16T04:51:45;6.40;99.90
48264;DHT22;34086;51.076;13.722;2023-04-16T04:52:47;6.50;99.90
48264;DHT22;34086;51.076;13.722;2023-04-16T04:53:47;6.50;99.90
48264;DHT22;34086;51.076;13.722;2023-04-16T04:54:48;6.50;99.90
48264;DHT22;34086;51.076;13.722;2023-04-16T04:55:49;6.50;99.90
48264;DHT22;34086;51.076;13.722;2023-04-16T04:56:49;6.50;99.90
48264;DHT22;34086;51.076;13.722;2023-04-16T04:57:52;6.50;99.90
48264;DHT22;34086;51.076;13.722;2023-04-16T04:58:54;6.60;99.90
48264;DHT22;34086;51.076;13.722;2023-04-16T04:59:57;6.60;99.90
48264;DHT22;34086;51.076;13.722;2023-04-16T05:00:59;6.60;99.90
48264;DHT22;34086;51.076;13.722;2023-04-16T05:01:59;6.60;99.90
48264;DHT22;34086;51.076;13.722;2023-04-16T05:03:05;6.60;99.90
48264;DHT22;34086;51.076;13.722;2023-04-16T05:04:06;6.70;99.90
48264;DHT22;34086;51.076;13.722;2023-04-16T05:05:07;6.70;99.90
48264;DHT22;34086;51.076;13.722;2023-04-16T05:06:08;6.70;99.90
48264;DHT22;34086;51.076;13.722;2023-04-16T05:07:08;6.70;99.90
48264;DHT22;34086;51.076;13.722;2023-04-16T05:08:09;6.80;99.90
48264;DHT22;34086;51.076;13.722;2023-04-16T05:09:10;6.80;99.90
48264;DHT22;34086;51.076;13.722;2023-04-16T05:10:11;6.90;99.90
48264;DHT22;34086;51.076;13.722;2023-04-16T05:11:11;6.90;99.90
48264;DHT22;34086;51.076;13.722;2023-04-16T05:12:12;7.00;99.90
48264;DHT22;34086;51.076;13.722;2023-04-16T05:13:12;7.00;99.90
48264;DHT22;34086;51.076;13.722;2023-04-16T05:14:13;7.10;99.90
48264;DHT22;34086;51.076;13.722;2023-04-16T05:15:14;7.10;99.90
48264;DHT22;34086;51.076;13.722;2023-04-16T05:16:14;7.20;99.90
48264;DHT22;34086;51.076;13.722;2023-04-16T05:17:15;7.10;99.90
48264;DHT22;34086;51.076;13.722;2023-04-16T05:18:16;7.10;99.90
48264;DHT22;34086;51.076;13.722;2023-04-16T05:19:17;7.10;99.90
48264;DHT22;34086;51.076;13.722;2023-04-16T05:20:17;7.10;99.90
48264;DHT22;34086;51.076;13.722;2023-04-16T05:21:18;7.10;99.90
48264;DHT22;34086;51.076;13.722;2023-04-16T05:22:18;7.10;99.90
48264;DHT22;34086;51.076;13.722;2023-04-16T05:23:19;7.00;99.90
48264;DHT22;34086;51.076;13.722;2023-04-16T05:24:23;6.90;99.90
48264;DHT22;34086;51.076;13.722;2023-04-16T05:25:24;6.90;99.90
48264;DHT22;34086;51.076;13.722;2023-04-16T05:26:25;6.90;99.90
48264;DHT22;34086;51.076;13.722;2023-04-16T05:27:26;6.80;99.90
48264;DHT22;34086;51.076;13.722;2023-04-16T05:28:26;6.80;99.90
48264;DHT22;34086;51.076;13.722;2023-04-16T05:29:27;6.80;99.90
48264;DHT22;34086;51.076;13.722;2023-04-16T05:30:27;6.80;99.90
48264;DHT22;34086;51.076;13.722;2023-04-16T05:31:29;6.80;99.90
48264;DHT22;34086;51.076;13.722;2023-04-16T05:32:29;6.80;99.90
48264;DHT22;34086;51.076;13.722;2023-04-16T05:33:30;6.80;99.90
48264;DHT22;34086;51.076;13.722;2023-04-16T05:34:30;6.80;99.90
48264;DHT22;34086;51.076;13.722;2023-04-16T05:35:31;6.80;99.90
48264;DHT22;34086;51.076;13.722;2023-04-16T05:36:32;6.80;99.90
48264;DHT22;34086;51.076;13.722;2023-04-16T05:37:32;6.90;99.90
48264;DHT22;34086;51.076;13.722;2023-04-16T05:38:33;6.90;99.90
48264;DHT22;34086;51.076;13.722;2023-04-16T05:39:34;6.90;99.90
48264;DHT22;34086;51.076;13.722;2023-04-16T05:40:34;6.90;99.90
48264;DHT22;34086;51.076;13.722;2023-04-16T05:41:35;6.80;99.90
48264;DHT22;34086;51.076;13.722;2023-04-16T05:42:36;6.90;99.90
48264;DHT22;34086;51.076;13.722;2023-04-16T05:43:37;6.90;99.90
48264;DHT22;34086;51.076;13.722;2023-04-16T05:44:37;6.80;99.90
48264;DHT22;34086;51.076;13.722;2023-04-16T05:45:38;6.80;99.90
48264;DHT22;34086;51.076;13.722;2023-04-16T05:46:40;6.80;99.90
48264;DHT22;34086;51.076;13.722;2023-04-16T05:47:40;6.90;99.90
48264;DHT22;34086;51.076;13.722;2023-04-16T05:48:41;6.90;99.90
48264;DHT22;34086;51.076;13.722;2023-04-16T05:49:41;7.00;99.90
48264;DHT22;34086;51.076;13.722;2023-04-16T05:50:42;7.00;99.90
48264;DHT22;34086;51.076;13.722;2023-04-16T05:51:43;7.00;99.90
48264;DHT22;34086;51.076;13.722;2023-04-16T05:52:43;7.10;99.90
48264;DHT22;34086;51.076;13.722;2023-04-16T05:53:44;7.10;99.90
48264;DHT22;34086;51.076;13.722;2023-04-16T05:54:45;7.10;99.90
48264;DHT22;34086;51.076;13.722;2023-04-16T05:55:45;7.10;99.90
48264;DHT22;34086;51.076;13.722;2023-04-16T05:56:46;7.20;99.90
48264;DHT22;34086;51.076;13.722;2023-04-16T05:57:47;7.20;99.90
48264;DHT22;34086;51.076;13.722;2023-04-16T05:58:48;7.20;99.90
48264;DHT22;34086;51.076;13.722;2023-04-16T05:59:48;7.30;99.90
48264;DHT22;34086;51.076;13.722;2023-04-16T06:00:49;7.30;99.90
48264;DHT22;34086;51.076;13.722;2023-04-16T06:01:50;7.30;99.90
48264;DHT22;34086;51.076;13.722;2023-04-16T06:02:50;7.30;99.90
48264;DHT22;34086;51.076;13.722;2023-04-16T06:03:51;7.40;99.90
48264;DHT22;34086;51.076;13.722;2023-04-16T06:04:51;7.40;99.90
48264;DHT22;34086;51.076;13.722;2023-04-16T06:05:52;7.40;99.90
48264;DHT22;34086;51.076;13.722;2023-04-16T06:06:52;7.40;99.90
48264;DHT22;34086;51.076;13.722;2023-04-16T06:07:53;7.40;99.90
48264;DHT22;34086;51.076;13.722;2023-04-16T06:08:55;7.50;99.90
48264;DHT22;34086;51.076;13.722;2023-04-16T06:09:55;7.50;99.90
48264;DHT22;34086;51.076;13.722;2023-04-16T06:10:56;7.50;99.90
48264;DHT22;34086;51.076;13.722;2023-04-16T06:11:57;7.60;99.90
48264;DHT22;34086;51.076;13.722;2023-04-16T06:12:57;7.60;99.90
48264;DHT22;34086;51.076;13.722;2023-04-16T06:13:58;7.60;99.90
48264;DHT22;34086;51.076;13.722;2023-04-16T06:14:59;7.70;99.90
48264;DHT22;34086;51.076;13.722;2023-04-16T06:16:00;7.70;99.90
48264;DHT22;34086;51.076;13.722;2023-04-16T06:17:01;7.70;99.90
48264;DHT22;34086;51.076;13.722;2023-04-16T06:18:01;7.70;99.90
48264;DHT22;34086;51.076;13.722;2023-04-16T06:19:02;7.80;99.90
48264;DHT22;34086;51.076;13.722;2023-04-16T06:20:03;7.80;99.90
48264;DHT22;34086;51.076;13.722;2023-04-16T06:21:04;7.80;99.90
48264;DHT22;34086;51.076;13.722;2023-04-16T06:22:05;7.90;99.90
48264;DHT22;34086;51.076;13.722;2023-04-16T06:23:05;8.00;99.90
48264;DHT22;34086;51.076;13.722;2023-04-16T06:24:06;8.00;99.90
48264;DHT22;34086;51.076;13.722;2023-04-16T06:25:07;8.00;99.90
48264;DHT22;34086;51.076;13.722;2023-04-16T06:26:08;8.00;99.90
48264;DHT22;34086;51.076;13.722;2023-04-16T06:27:08;8.10;99.90
48264;DHT22;34086;51.076;13.722;2023-04-16T06:28:09;8.20;99.90